Time;durP1;ratioP1;P1;durP2;ratioP2;P2;SDS_P1;SDS_P2;PMS_P1;PMS_P2;Temp;Humidity;BMP_temperature;BMP_pressure;BME280_temperature;BME280_humidity;BME280_pressure;Samples;Min_cycle;Max_cycle;Signal;HPM_P1;HPM_P2
2022/09/21 00:00:47;;;;;;;3.40;1.48;;;;;;;;;;4860877;29;20041;-75
2022/09/21 00:03:14;;;;;;;3.15;1.40;;;;;;;;;;4861298;29;20029;-75
2022/09/21 00:05:40;;;;;;;3.67;1.63;;;;;;;;;;4875039;29;20029;-74
2022/09/21 00:08:07;;;;;;;2.70;1.48;;;;;;;;;;4875125;29;20030;-75
2022/09/21 00:10:33;;;;;;;3.00;1.58;;;;;;;;;;4875583;29;20033;-75
2022/09/21 00:13:03;;;;;;;4.55;1.10;;;;;;;;;;4875277;29;20506;-74
2022/09/21 00:15:30;;;;;;;2.65;1.15;;;;;;;;;;4874917;29;20124;-75
2022/09/21 00:17:57;;;;;;;3.15;1.67;;;;;;;;;;4861203;29;20029;-77
2022/09/21 00:20:24;;;;;;;4.00;1.40;;;;;;;;;;4860296;29;20475;-78
2022/09/21 00:22:50;;;;;;;4.07;1.85;;;;;;;;;;4875965;29;20042;-74
2022/09/21 00:25:17;;;;;;;3.30;1.58;;;;;;;;;;4860653;29;20487;-75
2022/09/21 00:27:43;;;;;;;6.43;1.92;;;;;;;;;;4860309;29;20064;-74
2022/09/21 00:30:10;;;;;;;4.20;1.70;;;;;;;;;;4874590;29;20475;-75
2022/09/21 00:32:38;;;;;;;4.13;2.17;;;;;;;;;;4860634;29;20030;-75
2022/09/21 00:35:06;;;;;;;3.22;1.55;;;;;;;;;;4860049;29;20479;-75
2022/09/21 00:37:33;;;;;;;4.07;2.25;;;;;;;;;;4874609;29;20395;-75
2022/09/21 00:39:59;;;;;;;3.15;1.75;;;;;;;;;;4874908;29;20483;-75
2022/09/21 00:42:26;;;;;;;4.53;2.08;;;;;;;;;;4874719;29;20050;-77
2022/09/21 00:44:52;;;;;;;3.50;1.90;;;;;;;;;;4860360;29;20042;-75
2022/09/21 00:47:22;;;;;;;3.25;1.63;;;;;;;;;;4874374;29;20034;-74
2022/09/21 00:49:53;;;;;;;4.13;2.15;;;;;;;;;;4874904;29;20436;-74
2022/09/21 00:52:20;;;;;;;3.60;1.83;;;;;;;;;;4860363;29;20353;-76
2022/09/21 00:55:06;;;;;;;3.63;1.67;;;;;;;;;;4860120;29;20510;-74
2022/09/21 00:57:34;;;;;;;3.95;1.67;;;;;;;;;;4840699;29;20041;-74
2022/09/21 01:00:01;;;;;;;4.82;1.83;;;;;;;;;;4860138;29;20085;-75
2022/09/21 01:02:27;;;;;;;4.18;1.73;;;;;;;;;;4874587;29;20044;-74
2022/09/21 01:04:54;;;;;;;5.38;1.70;;;;;;;;;;4859895;29;20395;-76
2022/09/21 01:07:22;;;;;;;3.75;1.70;;;;;;;;;;4860186;29;20037;-74
2022/09/21 01:09:52;;;;;;;4.88;2.15;;;;;;;;;;4874076;29;20029;-74
2022/09/21 01:12:27;;;;;;;4.32;1.80;;;;;;;;;;4860257;29;20041;-76
2022/09/21 01:14:58;;;;;;;5.43;2.20;;;;;;;;;;4860004;29;20057;-73
2022/09/21 01:17:38;;;;;;;3.17;1.73;;;;;;;;;;4874803;29;20033;-75
2022/09/21 01:20:18;;;;;;;3.63;2.13;;;;;;;;;;4874017;29;20041;-73
2022/09/21 01:22:57;;;;;;;4.25;2.10;;;;;;;;;;4873736;29;20056;-75
2022/09/21 01:25:26;;;;;;;5.68;1.80;;;;;;;;;;4873662;29;20793;-74
2022/09/21 01:28:31;;;;;;;5.40;2.05;;;;;;;;;;4858769;29;20048;-74
2022/09/21 01:31:04;;;;;;;3.67;1.83;;;;;;;;;;4823367;29;20095;-73
2022/09/21 01:33:30;;;;;;;;;;;;;;;;;;4824433;29;20609;-73
2022/09/21 01:36:03;;;;;;;3.65;1.73;;;;;;;;;;4833121;29;19908;-74
2022/09/21 01:38:36;;;;;;;4.80;1.88;;;;;;;;;;4858839;29;20033;-73
2022/09/21 01:41:03;;;;;;;4.95;2.08;;;;;;;;;;4873177;29;20525;-74
2022/09/21 01:43:32;;;;;;;3.83;2.10;;;;;;;;;;4873205;29;20054;-74
2022/09/21 01:46:00;;;;;;;4.03;2.03;;;;;;;;;;4874062;29;20029;-74
2022/09/21 01:48:29;;;;;;;3.75;2.22;;;;;;;;;;4872821;29;20037;-74
2022/09/21 01:50:56;;;;;;;5.60;1.92;;;;;;;;;;4858471;29;20395;-73
2022/09/21 01:53:26;;;;;;;8.23;2.50;;;;;;;;;;4874004;29;20029;-74
2022/09/21 01:55:54;;;;;;;5.88;1.98;;;;;;;;;;4858897;29;20033;-74
2022/09/21 01:58:21;;;;;;;6.22;2.65;;;;;;;;;;4873327;29;20040;-74
2022/09/21 02:00:48;;;;;;;9.73;2.83;;;;;;;;;;4858843;29;20041;-75
2022/09/21 02:03:18;;;;;;;4.85;2.60;;;;;;;;;;4873233;29;20030;-73
2022/09/21 02:05:45;;;;;;;4.50;2.30;;;;;;;;;;4872379;29;20506;-73
2022/09/21 02:08:11;;;;;;;5.15;2.20;;;;;;;;;;4873557;29;20102;-74
2022/09/21 02:10:58;;;;;;;5.35;2.80;;;;;;;;;;4873448;29;20395;-74
2022/09/21 02:13:26;;;;;;;5.80;2.53;;;;;;;;;;4843110;29;20025;-74
2022/09/21 02:16:08;;;;;;;5.07;2.63;;;;;;;;;;4872841;29;20132;-74
2022/09/21 02:18:40;;;;;;;7.38;2.60;;;;;;;;;;4872640;29;20022;-73
2022/09/21 02:21:10;;;;;;;6.57;2.95;;;;;;;;;;4858529;29;20589;-74
2022/09/21 02:23:45;;;;;;;5.45;2.65;;;;;;;;;;4873358;29;20026;-74
2022/09/21 02:26:23;;;;;;;4.38;2.67;;;;;;;;;;4873055;29;20033;-73
2022/09/21 02:28:53;;;;;;;6.85;2.65;;;;;;;;;;4872598;29;20029;-75
2022/09/21 02:31:28;;;;;;;4.82;2.50;;;;;;;;;;4872131;29;20569;-73
2022/09/21 02:33:54;;;;;;;4.57;2.28;;;;;;;;;;4872585;29;20026;-75
2022/09/21 02:36:25;;;;;;;4.30;2.55;;;;;;;;;;4858250;29;20364;-74
2022/09/21 02:38:59;;;;;;;4.65;2.67;;;;;;;;;;4858794;29;20041;-74
2022/09/21 02:41:29;;;;;;;5.13;2.45;;;;;;;;;;4872497;29;20128;-74
2022/09/21 02:44:03;;;;;;;9.63;3.08;;;;;;;;;;4873012;29;20538;-74
2022/09/21 02:46:35;;;;;;;4.88;2.65;;;;;;;;;;4872244;29;20029;-73
2022/09/21 02:49:08;;;;;;;4.68;2.53;;;;;;;;;;4873197;29;20040;-73
2022/09/21 02:51:44;;;;;;;5.33;2.53;;;;;;;;;;4872736;29;20030;-74
2022/09/21 02:54:12;;;;;;;5.57;2.47;;;;;;;;;;4872985;29;20037;-74
2022/09/21 02:56:39;;;;;;;4.18;2.08;;;;;;;;;;4872550;29;20387;-74
2022/09/21 02:59:05;;;;;;;5.13;2.70;;;;;;;;;;4872023;29;20030;-74
2022/09/21 03:01:32;;;;;;;4.30;2.45;;;;;;;;;;4872671;29;20414;-73
2022/09/21 03:03:58;;;;;;;3.85;2.40;;;;;;;;;;4860264;29;20026;-74
2022/09/21 03:06:25;;;;;;;4.30;2.22;;;;;;;;;;4875950;29;20033;-77
2022/09/21 03:08:51;;;;;;;5.95;2.95;;;;;;;;;;4861734;29;20121;-74
2022/09/21 03:11:17;;;;;;;4.22;2.55;;;;;;;;;;4875969;29;20387;-74
2022/09/21 03:13:43;;;;;;;5.20;2.38;;;;;;;;;;4876465;29;20044;-73
2022/09/21 03:16:10;;;;;;;6.15;2.72;;;;;;;;;;4862392;29;20100;-74
2022/09/21 03:18:36;;;;;;;7.63;2.80;;;;;;;;;;4875689;29;20026;-74
2022/09/21 03:21:02;;;;;;;5.25;2.55;;;;;;;;;;4876002;29;20057;-74
2022/09/21 03:23:29;;;;;;;5.47;2.70;;;;;;;;;;4875895;29;20056;-75
2022/09/21 03:25:55;;;;;;;5.47;2.55;;;;;;;;;;4875982;29;20134;-76
2022/09/21 03:28:21;;;;;;;6.45;3.35;;;;;;;;;;4861093;29;20033;-75
2022/09/21 03:30:49;;;;;;;5.93;2.40;;;;;;;;;;4875679;29;20080;-73
2022/09/21 03:33:15;;;;;;;5.22;2.78;;;;;;;;;;4875249;29;20029;-73
2022/09/21 03:35:41;;;;;;;8.32;2.53;;;;;;;;;;4875421;29;20181;-74
2022/09/21 03:38:08;;;;;;;4.82;2.97;;;;;;;;;;4874580;29;20029;-74
2022/09/21 03:40:34;;;;;;;5.07;2.95;;;;;;;;;;4860876;29;20108;-74
2022/09/21 03:43:00;;;;;;;6.50;3.13;;;;;;;;;;4875464;29;20060;-73
2022/09/21 03:45:26;;;;;;;8.13;3.08;;;;;;;;;;4875692;29;20022;-75
2022/09/21 03:47:59;;;;;;;4.07;2.50;;;;;;;;;;4875184;29;20100;-74
2022/09/21 03:50:27;;;;;;;5.82;3.08;;;;;;;;;;4874777;29;20574;-74
2022/09/21 03:52:53;;;;;;;5.90;2.05;;;;;;;;;;4861500;29;20030;-74
2022/09/21 03:55:20;;;;;;;5.72;2.53;;;;;;;;;;4875421;29;20503;-73
2022/09/21 03:57:46;;;;;;;5.55;3.15;;;;;;;;;;4861495;29;20029;-75
2022/09/21 04:00:13;;;;;;;7.55;2.10;;;;;;;;;;4875662;29;20052;-75
2022/09/21 04:02:39;;;;;;;6.07;2.97;;;;;;;;;;4860237;29;20029;-74
2022/09/21 04:05:06;;;;;;;6.20;2.80;;;;;;;;;;4874735;29;20086;-75
2022/09/21 04:07:33;;;;;;;6.45;3.15;;;;;;;;;;4874367;29;20132;-76
2022/09/21 04:10:04;;;;;;;5.57;2.67;;;;;;;;;;4860234;29;20431;-75
2022/09/21 04:12:31;;;;;;;7.03;3.17;;;;;;;;;;4874940;29;20128;-75
2022/09/21 04:14:57;;;;;;;5.75;3.30;;;;;;;;;;4874239;29;20030;-76
2022/09/21 04:17:24;;;;;;;8.88;3.45;;;;;;;;;;4875343;29;20089;-77
2022/09/21 04:19:50;;;;;;;4.78;2.90;;;;;;;;;;4860015;29;20065;-75
2022/09/21 04:22:17;;;;;;;7.30;3.10;;;;;;;;;;4875071;29;20037;-76
2022/09/21 04:24:44;;;;;;;6.28;3.22;;;;;;;;;;4874750;29;20033;-75
2022/09/21 04:27:11;;;;;;;5.57;2.38;;;;;;;;;;4874569;29;20060;-74
2022/09/21 04:29:37;;;;;;;5.43;3.28;;;;;;;;;;4873955;29;20086;-74
2022/09/21 04:32:04;;;;;;;5.57;2.92;;;;;;;;;;4874846;29;20165;-75
2022/09/21 04:34:31;;;;;;;6.63;3.28;;;;;;;;;;4861116;29;20068;-74
2022/09/21 04:36:58;;;;;;;5.88;3.17;;;;;;;;;;4874485;29;20057;-74
2022/09/21 04:39:25;;;;;;;6.70;3.47;;;;;;;;;;4860361;29;20441;-74
2022/09/21 04:41:51;;;;;;;6.00;3.40;;;;;;;;;;4874255;29;20833;-74
2022/09/21 04:44:18;;;;;;;8.00;4.05;;;;;;;;;;4860610;29;20033;-74
2022/09/21 04:46:44;;;;;;;9.05;3.78;;;;;;;;;;4874477;29;20065;-74
2022/09/21 04:49:10;;;;;;;12.68;3.65;;;;;;;;;;4873945;29;20635;-74
2022/09/21 04:51:36;;;;;;;8.60;4.35;;;;;;;;;;4874591;29;20021;-74
2022/09/21 04:54:03;;;;;;;8.60;4.30;;;;;;;;;;4860445;29;20072;-74
2022/09/21 04:56:29;;;;;;;8.25;3.97;;;;;;;;;;4873883;29;20029;-74
2022/09/21 04:58:55;;;;;;;8.40;4.63;;;;;;;;;;4874778;29;20120;-73
2022/09/21 05:01:22;;;;;;;9.48;4.28;;;;;;;;;;4874779;29;20045;-73
2022/09/21 05:03:48;;;;;;;9.95;4.28;;;;;;;;;;4874807;29;20037;-75
2022/09/21 05:06:14;;;;;;;9.25;4.15;;;;;;;;;;4875069;29;20037;-74
2022/09/21 05:11:25;;;;;;;8.65;3.70;;;;;;;;;;4895519;29;20051;-74
2022/09/21 05:13:51;;;;;;;8.55;4.00;;;;;;;;;;4880483;29;20029;-74
2022/09/21 05:16:18;;;;;;;8.02;3.63;;;;;;;;;;4881712;29;20033;-74
2022/09/21 05:18:45;;;;;;;9.10;3.03;;;;;;;;;;4898733;29;20036;-73
2022/09/21 05:21:11;;;;;;;7.25;3.33;;;;;;;;;;4881866;29;20078;-73
2022/09/21 05:23:38;;;;;;;8.60;3.70;;;;;;;;;;4881520;29;20025;-74
2022/09/21 05:26:04;;;;;;;8.50;3.90;;;;;;;;;;4898207;29;20029;-74
2022/09/21 05:28:31;;;;;;;12.50;3.70;;;;;;;;;;4881235;29;20466;-74
2022/09/21 05:31:09;;;;;;;7.13;3.22;;;;;;;;;;4881672;29;20478;-74
2022/09/21 05:33:36;;;;;;;7.45;3.33;;;;;;;;;;4881643;29;20077;-73
2022/09/21 05:36:21;;;;;;;5.60;2.20;;;;;;;;;;4881603;29;20028;-74
2022/09/21 05:38:47;;;;;;;4.93;2.50;;;;;;;;;;4881308;29;20165;-73
2022/09/21 05:41:13;;;;;;;5.53;2.38;;;;;;;;;;4898277;29;20048;-74
2022/09/21 05:43:40;;;;;;;7.38;2.88;;;;;;;;;;4881288;29;20414;-72
2022/09/21 05:46:24;;;;;;;4.45;2.45;;;;;;;;;;4881386;29;20053;-73
2022/09/21 05:49:00;;;;;;;5.40;2.42;;;;;;;;;;4881572;29;20451;-74
2022/09/21 05:51:33;;;;;;;5.38;2.85;;;;;;;;;;4898081;29;20491;-75
2022/09/21 05:54:13;;;;;;;3.83;2.35;;;;;;;;;;4881374;29;20032;-74
2022/09/21 05:56:42;;;;;;;3.70;1.92;;;;;;;;;;4881115;29;20029;-76
2022/09/21 05:59:15;;;;;;;5.28;1.98;;;;;;;;;;4880880;29;20029;-74
2022/09/21 06:02:10;;;;;;;3.58;1.70;;;;;;;;;;4898051;29;20386;-74
2022/09/21 06:04:36;;;;;;;2.88;1.58;;;;;;;;;;4815558;29;20039;-75
2022/09/21 06:07:02;;;;;;;3.40;1.77;;;;;;;;;;4897778;29;20029;-75
2022/09/21 06:09:28;;;;;;;4.85;1.45;;;;;;;;;;4881238;29;20084;-74
2022/09/21 06:11:54;;;;;;;2.97;1.70;;;;;;;;;;4881085;29;20025;-74
2022/09/21 06:14:24;;;;;;;2.78;1.52;;;;;;;;;;4898112;29;20115;-74
2022/09/21 06:16:50;;;;;;;3.10;1.60;;;;;;;;;;4898055;29;20025;-74
2022/09/21 06:19:17;;;;;;;2.70;1.48;;;;;;;;;;4880922;29;20491;-76
2022/09/21 06:21:43;;;;;;;3.15;1.52;;;;;;;;;;4881084;29;20036;-69
2022/09/21 06:24:10;;;;;;;3.05;1.00;;;;;;;;;;4881040;29;20505;-75
2022/09/21 06:26:37;;;;;;;3.30;1.38;;;;;;;;;;4880933;29;20039;-76
2022/09/21 06:29:03;;;;;;;2.90;1.30;;;;;;;;;;4897900;29;20043;-74
2022/09/21 06:31:29;;;;;;;3.25;1.20;;;;;;;;;;4880821;29;20029;-75
2022/09/21 06:33:55;;;;;;;3.20;1.00;;;;;;;;;;4880994;29;20029;-75
2022/09/21 06:36:22;;;;;;;2.03;0.98;;;;;;;;;;4880955;29;20040;-79
2022/09/21 06:38:48;;;;;;;3.03;1.20;;;;;;;;;;4883096;29;20119;-76
2022/09/21 06:41:14;;;;;;;1.85;0.93;;;;;;;;;;4884679;29;20051;-75
2022/09/21 06:43:40;;;;;;;3.20;0.88;;;;;;;;;;4884284;29;20053;-75
2022/09/21 06:46:06;;;;;;;3.25;0.93;;;;;;;;;;4884758;29;20033;-76
2022/09/21 06:48:33;;;;;;;3.67;0.98;;;;;;;;;;4884719;29;20095;-76
2022/09/21 06:51:03;;;;;;;2.05;1.05;;;;;;;;;;4884598;29;20084;-75
2022/09/21 06:53:30;;;;;;;1.90;0.80;;;;;;;;;;4901356;29;20368;-76
2022/09/21 06:56:00;;;;;;;1.67;0.70;;;;;;;;;;4884526;29;20032;-75
2022/09/21 06:58:27;;;;;;;0.85;0.50;;;;;;;;;;4884303;29;20111;-75
2022/09/21 07:00:53;;;;;;;2.70;0.70;;;;;;;;;;4884340;29;20184;-75
2022/09/21 07:03:19;;;;;;;1.95;0.80;;;;;;;;;;4884417;29;20048;-74
2022/09/21 07:05:45;;;;;;;1.67;0.57;;;;;;;;;;4884428;29;20060;-75
2022/09/21 07:08:11;;;;;;;1.20;0.60;;;;;;;;;;4884229;29;20039;-75
2022/09/21 07:10:38;;;;;;;2.35;0.80;;;;;;;;;;4884016;29;20035;-75
2022/09/21 07:13:04;;;;;;;2.28;1.00;;;;;;;;;;4884165;29;20060;-75
2022/09/21 07:15:31;;;;;;;1.73;0.60;;;;;;;;;;4901072;29;20080;-74
2022/09/21 07:17:57;;;;;;;1.48;0.45;;;;;;;;;;4901018;29;20035;-75
2022/09/21 07:20:27;;;;;;;1.60;0.50;;;;;;;;;;4883936;29;20055;-74
2022/09/21 07:22:53;;;;;;;0.82;0.40;;;;;;;;;;4900702;29;20036;-74
2022/09/21 07:25:19;;;;;;;1.05;0.50;;;;;;;;;;4883933;29;20059;-75
2022/09/21 07:27:47;;;;;;;0.88;0.40;;;;;;;;;;4884049;29;20092;-73
2022/09/21 07:30:13;;;;;;;1.30;0.47;;;;;;;;;;4900652;29;20060;-78
2022/09/21 07:32:39;;;;;;;3.42;0.55;;;;;;;;;;4883820;29;20025;-78
2022/09/21 07:35:05;;;;;;;1.35;0.40;;;;;;;;;;4900699;29;20116;-77
2022/09/21 07:37:31;;;;;;;2.83;0.60;;;;;;;;;;4883772;29;20028;-73
2022/09/21 07:39:58;;;;;;;1.13;0.43;;;;;;;;;;4883412;29;20059;-75
2022/09/21 07:42:25;;;;;;;1.30;0.50;;;;;;;;;;4900320;29;20522;-75
2022/09/21 07:44:52;;;;;;;1.55;0.45;;;;;;;;;;4900512;29;20351;-74
2022/09/21 07:47:19;;;;;;;1.30;0.50;;;;;;;;;;4883712;29;20056;-75
2022/09/21 07:49:45;;;;;;;1.08;0.43;;;;;;;;;;4899201;29;20478;-76
2022/09/21 07:52:14;;;;;;;2.92;0.52;;;;;;;;;;4883536;29;20079;-73
2022/09/21 07:54:40;;;;;;;0.95;0.40;;;;;;;;;;4883503;29;20606;-73
2022/09/21 07:59:51;;;;;;;0.77;0.32;;;;;;;;;;4900335;29;20108;-75
2022/09/21 08:02:17;;;;;;;1.40;0.47;;;;;;;;;;4900078;29;20032;-75
2022/09/21 08:04:43;;;;;;;3.53;1.10;;;;;;;;;;4883305;29;20021;-75
2022/09/21 08:07:09;;;;;;;1.63;0.40;;;;;;;;;;4883346;29;20032;-74
2022/09/21 08:09:35;;;;;;;2.65;0.50;;;;;;;;;;4883101;29;20111;-74
2022/09/21 08:12:02;;;;;;;1.10;0.50;;;;;;;;;;4883110;29;20032;-76
2022/09/21 08:14:28;;;;;;;1.05;0.40;;;;;;;;;;4900097;29;20024;-76
2022/09/21 08:16:54;;;;;;;0.85;0.40;;;;;;;;;;4883068;29;20401;-77
2022/09/21 08:19:24;;;;;;;1.38;0.50;;;;;;;;;;4882924;29;20040;-76
2022/09/21 08:21:50;;;;;;;1.52;0.47;;;;;;;;;;4882966;29;20040;-75
2022/09/21 08:24:17;;;;;;;1.65;0.60;;;;;;;;;;4899841;29;20390;-77
2022/09/21 08:26:44;;;;;;;2.88;0.60;;;;;;;;;;4899815;29;20474;-77
2022/09/21 08:29:12;;;;;;;1.05;0.50;;;;;;;;;;4882752;29;20045;-75
2022/09/21 08:31:38;;;;;;;1.15;0.40;;;;;;;;;;4882787;29;20040;-76
2022/09/21 08:34:05;;;;;;;2.50;0.55;;;;;;;;;;4882812;29;20035;-76
2022/09/21 08:36:31;;;;;;;1.73;0.70;;;;;;;;;;4882505;29;20060;-76
2022/09/21 08:38:57;;;;;;;1.02;0.45;;;;;;;;;;4899579;29;20094;-76
2022/09/21 08:41:25;;;;;;;1.15;0.60;;;;;;;;;;4882620;29;20513;-75
2022/09/21 08:43:53;;;;;;;2.85;0.60;;;;;;;;;;4882360;29;20143;-76
2022/09/21 08:46:21;;;;;;;2.55;0.55;;;;;;;;;;4882595;29;20039;-75
2022/09/21 08:49:09;;;;;;;4.25;0.82;;;;;;;;;;4882499;29;20470;-75
2022/09/21 08:51:41;;;;;;;1.50;0.68;;;;;;;;;;4882414;29;20028;-75
2022/09/21 08:54:16;;;;;;;1.65;0.63;;;;;;;;;;4882490;29;20028;-76
2022/09/21 08:56:42;;;;;;;1.75;0.70;;;;;;;;;;4899291;29;20036;-75
2022/09/21 08:59:14;;;;;;;1.77;0.50;;;;;;;;;;4882321;29;20021;-75
2022/09/21 09:01:54;;;;;;;1.52;0.70;;;;;;;;;;4881690;29;20043;-75
2022/09/21 09:04:23;;;;;;;2.10;0.68;;;;;;;;;;4867032;29;20025;-75
2022/09/21 09:06:52;;;;;;;0.90;0.32;;;;;;;;;;4882151;29;20032;-75
2022/09/21 09:09:37;;;;;;;1.40;0.50;;;;;;;;;;4899046;29;20036;-76
2022/09/21 09:12:03;;;;;;;0.88;0.22;;;;;;;;;;4881791;29;20024;-76
2022/09/21 09:14:30;;;;;;;0.80;0.30;;;;;;;;;;4882064;29;20172;-75
2022/09/21 09:17:05;;;;;;;1.38;0.55;;;;;;;;;;4898872;29;20518;-76
2022/09/21 09:19:54;;;;;;;1.00;0.45;;;;;;;;;;4882034;29;20033;-76
2022/09/21 09:22:25;;;;;;;2.85;0.50;;;;;;;;;;4888860;29;20100;-75
2022/09/21 09:24:52;;;;;;;1.48;0.55;;;;;;;;;;4898806;29;20025;-75
2022/09/21 09:27:28;;;;;;;1.42;0.38;;;;;;;;;;4881741;29;20550;-75
2022/09/21 09:30:01;;;;;;;1.00;0.40;;;;;;;;;;4881708;29;20028;-75
2022/09/21 09:32:31;;;;;;;1.23;0.50;;;;;;;;;;4898399;29;20052;-75
2022/09/21 09:35:04;;;;;;;3.25;0.40;;;;;;;;;;4881733;29;20044;-74
2022/09/21 09:37:33;;;;;;;1.92;0.40;;;;;;;;;;4881711;29;20088;-75
2022/09/21 09:40:00;;;;;;;3.30;0.32;;;;;;;;;;4898449;29;20033;-74
2022/09/21 09:42:33;;;;;;;1.30;0.40;;;;;;;;;;4898002;29;20076;-74
2022/09/21 09:45:20;;;;;;;1.77;0.47;;;;;;;;;;4881550;29;20096;-75
2022/09/21 09:48:01;;;;;;;0.30;0.20;;;;;;;;;;4881598;29;20025;-76
2022/09/21 09:50:41;;;;;;;1.10;0.40;;;;;;;;;;4881590;29;20084;-73
2022/09/21 09:53:18;;;;;;;1.30;0.40;;;;;;;;;;4898243;29;20276;-75
2022/09/21 09:55:52;;;;;;;0.75;0.30;;;;;;;;;;4898064;29;20033;-74
2022/09/21 09:58:22;;;;;;;0.75;0.30;;;;;;;;;;4881453;29;20036;-74
2022/09/21 10:00:51;;;;;;;0.55;0.20;;;;;;;;;;4881319;29;20047;-74
2022/09/21 10:03:19;;;;;;;1.40;0.45;;;;;;;;;;4872101;29;20040;-74
2022/09/21 10:05:45;;;;;;;1.30;0.43;;;;;;;;;;4871697;29;20403;-75
2022/09/21 10:08:30;;;;;;;2.55;0.50;;;;;;;;;;4872076;29;20032;-74
2022/09/21 10:10:57;;;;;;;1.35;0.40;;;;;;;;;;4889259;29;20498;-74
2022/09/21 10:13:26;;;;;;;1.20;0.50;;;;;;;;;;4880216;29;20039;-76
2022/09/21 10:15:57;;;;;;;1.50;0.50;;;;;;;;;;4881173;29;20084;-74
2022/09/21 10:18:32;;;;;;;0.60;0.30;;;;;;;;;;4881273;29;20028;-75
2022/09/21 10:21:06;;;;;;;1.85;0.50;;;;;;;;;;4881099;29;20127;-75
2022/09/21 10:23:33;;;;;;;1.08;0.50;;;;;;;;;;4880975;29;20025;-75
2022/09/21 10:26:01;;;;;;;1.20;0.30;;;;;;;;;;4897998;29;20033;-75
2022/09/21 10:28:28;;;;;;;0.82;0.30;;;;;;;;;;4881078;29;20076;-77
2022/09/21 10:31:12;;;;;;;1.27;0.40;;;;;;;;;;4881030;29;20035;-76
2022/09/21 10:33:49;;;;;;;0.82;0.30;;;;;;;;;;4880887;29;20474;-76
2022/09/21 10:36:29;;;;;;;1.13;0.30;;;;;;;;;;4897819;29;20110;-74
2022/09/21 10:38:55;;;;;;;0.90;0.40;;;;;;;;;;4881073;29;20029;-76
2022/09/21 10:41:21;;;;;;;0.73;0.30;;;;;;;;;;4881076;29;20139;-80
2022/09/21 10:43:49;;;;;;;1.75;0.40;;;;;;;;;;4880694;29;20048;-74
2022/09/21 10:46:16;;;;;;;4.82;0.35;;;;;;;;;;4880850;29;20375;-78
2022/09/21 10:48:44;;;;;;;1.75;0.50;;;;;;;;;;4897797;29;20036;-75
2022/09/21 10:51:21;;;;;;;1.27;0.30;;;;;;;;;;4880866;29;20120;-76
2022/09/21 10:53:48;;;;;;;1.25;0.40;;;;;;;;;;4880784;29;20406;-76
2022/09/21 10:56:17;;;;;;;0.82;0.43;;;;;;;;;;4897657;29;20036;-78
2022/09/21 10:59:02;;;;;;;1.30;0.68;;;;;;;;;;4897735;29;20053;-76
2022/09/21 11:01:29;;;;;;;1.52;0.60;;;;;;;;;;4897216;29;20047;-75
2022/09/21 11:04:18;;;;;;;1.67;0.68;;;;;;;;;;4880694;29;20037;-74
2022/09/21 11:06:46;;;;;;;0.93;0.50;;;;;;;;;;4869107;29;20095;-78
2022/09/21 11:09:14;;;;;;;1.30;0.70;;;;;;;;;;4880565;29;20048;-76
2022/09/21 11:11:57;;;;;;;1.40;0.60;;;;;;;;;;4880689;29;20040;-77
2022/09/21 11:14:32;;;;;;;1.42;0.55;;;;;;;;;;4897796;29;20036;-76
2022/09/21 11:17:14;;;;;;;1.13;0.38;;;;;;;;;;4880640;29;20028;-75
2022/09/21 11:19:43;;;;;;;1.17;0.60;;;;;;;;;;4880483;29;20079;-75
2022/09/21 11:22:09;;;;;;;1.08;0.60;;;;;;;;;;4880447;29;20622;-77
2022/09/21 11:24:59;;;;;;;3.47;0.45;;;;;;;;;;4882487;29;20043;-77
2022/09/21 11:27:31;;;;;;;1.10;0.50;;;;;;;;;;4841859;29;20040;-78
2022/09/21 11:30:11;;;;;;;1.67;0.50;;;;;;;;;;4901187;29;20176;-78
2022/09/21 11:32:42;;;;;;;2.10;0.70;;;;;;;;;;4900776;29;20029;-72
2022/09/21 11:35:12;;;;;;;2.40;0.73;;;;;;;;;;4883629;29;20033;-72
2022/09/21 11:37:47;;;;;;;1.10;0.50;;;;;;;;;;4883577;29;20466;-71
2022/09/21 11:40:13;;;;;;;1.25;0.60;;;;;;;;;;4883698;29;20049;-73
2022/09/21 11:42:54;;;;;;;1.05;0.60;;;;;;;;;;4900331;29;20414;-72
2022/09/21 11:45:33;;;;;;;2.63;0.70;;;;;;;;;;4900579;29;20025;-73
2022/09/21 11:48:18;;;;;;;1.23;0.70;;;;;;;;;;4883711;29;20060;-76
2022/09/21 11:50:44;;;;;;;1.55;0.70;;;;;;;;;;4883570;29;20062;-76
2022/09/21 11:53:10;;;;;;;1.83;0.80;;;;;;;;;;4900412;29;20382;-78
2022/09/21 11:56:00;;;;;;;4.47;0.80;;;;;;;;;;4883608;29;20072;-76
2022/09/21 11:58:45;;;;;;;3.50;0.77;;;;;;;;;;4871617;29;20069;-75
2022/09/21 12:01:27;;;;;;;1.55;0.70;;;;;;;;;;4900260;29;20394;-74
2022/09/21 12:04:09;;;;;;;2.28;0.70;;;;;;;;;;4883218;29;20473;-70
2022/09/21 12:06:54;;;;;;;4.60;0.70;;;;;;;;;;4883293;29;20482;-71
2022/09/21 12:09:21;;;;;;;2.30;0.88;;;;;;;;;;4883363;29;20028;-71
2022/09/21 12:11:55;;;;;;;1.13;0.50;;;;;;;;;;4883229;29;20471;-70
2022/09/21 12:14:32;;;;;;;1.05;0.55;;;;;;;;;;4883202;29;20390;-71
2022/09/21 12:16:58;;;;;;;1.77;0.70;;;;;;;;;;4883001;29;20029;-73
2022/09/21 12:19:26;;;;;;;1.73;0.77;;;;;;;;;;4900049;29;20029;-71
2022/09/21 12:21:55;;;;;;;3.58;0.70;;;;;;;;;;4882993;29;20133;-71
2022/09/21 12:24:34;;;;;;;2.65;0.65;;;;;;;;;;4900087;29;20092;-71
2022/09/21 12:27:03;;;;;;;2.45;0.50;;;;;;;;;;4882811;29;20427;-73
2022/09/21 12:29:52;;;;;;;2.15;0.73;;;;;;;;;;4882831;29;20084;-72
2022/09/21 12:32:23;;;;;;;3.00;0.80;;;;;;;;;;4899801;29;20108;-72
2022/09/21 12:34:53;;;;;;;2.00;0.63;;;;;;;;;;4882799;29;20032;-70
2022/09/21 12:37:31;;;;;;;1.83;0.70;;;;;;;;;;4882109;29;20032;-70
2022/09/21 12:40:05;;;;;;;1.70;0.80;;;;;;;;;;4882662;29;20482;-70
2022/09/21 12:42:40;;;;;;;2.30;0.70;;;;;;;;;;4899569;29;20052;-74
2022/09/21 12:45:12;;;;;;;4.15;0.50;;;;;;;;;;4882403;29;20123;-71
2022/09/21 12:47:47;;;;;;;1.13;0.50;;;;;;;;;;4899623;29;20028;-69
2022/09/21 12:50:25;;;;;;;1.55;0.77;;;;;;;;;;4882545;29;20024;-71
2022/09/21 12:52:52;;;;;;;1.73;0.60;;;;;;;;;;4899348;29;20029;-74
2022/09/21 12:55:32;;;;;;;1.70;0.90;;;;;;;;;;4882521;29;20116;-70
2022/09/21 12:58:01;;;;;;;1.95;1.02;;;;;;;;;;4899405;29;20491;-70
2022/09/21 13:00:31;;;;;;;2.08;0.88;;;;;;;;;;4898914;29;20442;-74
2022/09/21 13:03:02;;;;;;;3.35;0.77;;;;;;;;;;4899223;29;20032;-74
2022/09/21 13:05:35;;;;;;;2.97;1.00;;;;;;;;;;4899302;29;20084;-73
2022/09/21 13:08:07;;;;;;;1.73;0.90;;;;;;;;;;4882416;29;20105;-72
2022/09/21 13:10:38;;;;;;;2.30;0.90;;;;;;;;;;4899012;29;20024;-72
2022/09/21 13:13:07;;;;;;;1.35;0.70;;;;;;;;;;4882235;29;20092;-71
2022/09/21 13:15:43;;;;;;;1.70;0.57;;;;;;;;;;4882050;29;20035;-74
2022/09/21 13:18:36;;;;;;;1.70;0.80;;;;;;;;;;4882114;29;20032;-72
2022/09/21 13:21:14;;;;;;;2.70;0.75;;;;;;;;;;4877772;29;20115;-71
2022/09/21 13:23:41;;;;;;;1.67;0.73;;;;;;;;;;4882022;29;20044;-72
2022/09/21 13:26:08;;;;;;;6.05;0.80;;;;;;;;;;4881935;29;20461;-74
2022/09/21 13:28:43;;;;;;;1.30;0.60;;;;;;;;;;4898749;29;20036;-74
2022/09/21 13:31:16;;;;;;;1.58;0.57;;;;;;;;;;4881652;29;20454;-73
2022/09/21 13:34:01;;;;;;;2.67;0.80;;;;;;;;;;4881899;29;20401;-74
2022/09/21 13:36:32;;;;;;;1.98;0.70;;;;;;;;;;4881683;29;20541;-71
2022/09/21 13:39:04;;;;;;;1.90;0.80;;;;;;;;;;4881806;29;20056;-70
2022/09/21 13:41:30;;;;;;;1.90;0.60;;;;;;;;;;4881588;29;20563;-70
2022/09/21 13:44:01;;;;;;;1.55;0.70;;;;;;;;;;4898167;29;20059;-72
2022/09/21 13:46:30;;;;;;;1.95;0.80;;;;;;;;;;4881612;29;20375;-70
2022/09/21 13:48:56;;;;;;;2.10;0.90;;;;;;;;;;4897943;29;20059;-71
2022/09/21 13:51:24;;;;;;;2.20;0.90;;;;;;;;;;4881328;29;20221;-71
2022/09/21 13:53:55;;;;;;;1.65;0.75;;;;;;;;;;4881484;29;20071;-69
2022/09/21 13:56:23;;;;;;;1.85;0.80;;;;;;;;;;4881567;29;20060;-69
2022/09/21 13:58:51;;;;;;;2.00;0.80;;;;;;;;;;4881420;29;20040;-74
2022/09/21 14:01:21;;;;;;;1.70;0.90;;;;;;;;;;4881406;29;20045;-73
2022/09/21 14:03:56;;;;;;;2.33;1.10;;;;;;;;;;4881203;29;20080;-72
2022/09/21 14:06:25;;;;;;;1.88;0.95;;;;;;;;;;4881416;29;20033;-74
2022/09/21 14:08:58;;;;;;;2.97;1.15;;;;;;;;;;4898157;29;20401;-70
2022/09/21 14:11:34;;;;;;;2.05;1.00;;;;;;;;;;4881112;29;20565;-73
2022/09/21 14:14:06;;;;;;;5.68;1.05;;;;;;;;;;4881222;29;20032;-70
2022/09/21 14:16:33;;;;;;;2.75;1.50;;;;;;;;;;4898232;29;20025;-70
2022/09/21 14:19:02;;;;;;;2.40;1.10;;;;;;;;;;4898055;29;20037;-70
2022/09/21 14:21:28;;;;;;;2.42;1.20;;;;;;;;;;4897946;29;20083;-70
2022/09/21 14:24:06;;;;;;;3.00;1.00;;;;;;;;;;4897846;29;20025;-71
2022/09/21 14:26:32;;;;;;;2.10;1.20;;;;;;;;;;4881192;29;20039;-70
2022/09/21 14:29:05;;;;;;;2.08;1.08;;;;;;;;;;4897902;29;20418;-72
2022/09/21 14:31:34;;;;;;;1.93;0.90;;;;;;;;;;4881248;29;20444;-74
2022/09/21 14:34:02;;;;;;;2.08;1.08;;;;;;;;;;4880955;29;20051;-72
2022/09/21 14:36:40;;;;;;;3.42;0.90;;;;;;;;;;4880980;29;20037;-72
2022/09/21 14:39:15;;;;;;;2.38;0.85;;;;;;;;;;4881083;29;20021;-73
2022/09/21 14:41:42;;;;;;;2.05;0.95;;;;;;;;;;4880696;29;20442;-74
2022/09/21 14:44:20;;;;;;;1.90;0.88;;;;;;;;;;4880774;29;20050;-73
2022/09/21 14:46:54;;;;;;;1.70;1.00;;;;;;;;;;4880916;29;20486;-73
2022/09/21 14:49:34;;;;;;;1.65;0.90;;;;;;;;;;4880791;29;20142;-73
2022/09/21 14:52:06;;;;;;;1.30;0.65;;;;;;;;;;4880929;29;20033;-72
2022/09/21 14:54:44;;;;;;;2.53;0.70;;;;;;;;;;4897587;29;20037;-71
2022/09/21 14:57:23;;;;;;;1.08;0.43;;;;;;;;;;4880796;29;20103;-72
2022/09/21 14:59:58;;;;;;;1.50;0.60;;;;;;;;;;4882777;29;20036;-74
2022/09/21 15:02:26;;;;;;;2.67;0.70;;;;;;;;;;4901199;29;20071;-76
2022/09/21 15:05:00;;;;;;;2.00;0.55;;;;;;;;;;4884426;29;20033;-75
2022/09/21 15:10:55;;;;;;;1.10;0.50;;;;;;;;;;4898005;29;20035;-73